Time;durP1;ratioP1;P1;durP2;ratioP2;P2;SDS_P1;SDS_P2;PMS_P1;PMS_P2;Temp;Humidity;BMP_temperature;BMP_pressure;BME280_temperature;BME280_humidity;BME280_pressure;Samples;Min_cycle;Max_cycle;Signal;HPM_P1;HPM_P2
2020/12/21 00:02:04;;;;;;;28.75;17.35;;;1.60;99.90;;;;;;4717678;30;20048;-78
2020/12/21 00:04:35;;;;;;;25.65;16.25;;;1.60;99.90;;;;;;4734547;30;20162;-77
2020/12/21 00:07:02;;;;;;;21.65;13.43;;;1.60;99.90;;;;;;4719136;30;20127;-78
2020/12/21 00:09:33;;;;;;;20.05;13.38;;;1.60;99.90;;;;;;4718665;30;20059;-78
2020/12/21 00:12:00;;;;;;;17.45;13.00;;;1.70;99.90;;;;;;4733601;30;20114;-77
2020/12/21 00:14:31;;;;;;;16.48;11.80;;;1.70;99.90;;;;;;4733474;30;20052;-78
2020/12/21 00:17:02;;;;;;;16.90;11.30;;;1.70;99.90;;;;;;4719732;30;20517;-78
2020/12/21 00:19:29;;;;;;;15.95;10.88;;;1.70;99.90;;;;;;4732890;30;20056;-77
2020/12/21 00:21:55;;;;;;;18.20;11.90;;;1.70;99.90;;;;;;4733671;30;20123;-77
2020/12/21 00:24:22;;;;;;;15.80;10.98;;;1.60;99.90;;;;;;4733598;30;20056;-78
2020/12/21 00:26:50;;;;;;;17.00;11.20;;;1.60;99.90;;;;;;4733527;30;20142;-77
2020/12/21 00:29:18;;;;;;;17.23;11.82;;;1.60;99.90;;;;;;4718159;30;20405;-78
2020/12/21 00:31:49;;;;;;;18.20;12.05;;;1.60;99.90;;;;;;4733393;30;20406;-78
2020/12/21 00:34:20;;;;;;;21.23;11.73;;;1.60;99.90;;;;;;4719276;30;20424;-78
2020/12/21 00:36:53;;;;;;;18.20;11.80;;;1.70;99.90;;;;;;4719377;30;20056;-77
2020/12/21 00:39:20;;;;;;;16.92;11.23;;;1.70;99.90;;;;;;4732776;30;20052;-77
2020/12/21 00:41:47;;;;;;;17.90;12.02;;;1.70;99.90;;;;;;4733292;30;20074;-78
2020/12/21 00:44:19;;;;;;;19.17;11.40;;;1.70;99.90;;;;;;4719529;30;20138;-78
2020/12/21 00:46:45;;;;;;;19.38;11.98;;;1.70;99.90;;;;;;4733129;30;20425;-77
2020/12/21 00:49:12;;;;;;;18.50;12.00;;;1.70;99.90;;;;;;4732602;30;20151;-77
2020/12/21 00:51:38;;;;;;;18.45;12.00;;;1.70;99.90;;;;;;4718888;30;20147;-77
2020/12/21 00:54:10;;;;;;;16.98;12.60;;;1.70;99.90;;;;;;4719083;30;20067;-78
2020/12/21 00:56:36;;;;;;;18.15;11.75;;;1.70;99.90;;;;;;4733092;30;20154;-78
2020/12/21 00:59:02;;;;;;;17.10;10.90;;;1.70;99.90;;;;;;4732846;30;20062;-78
2020/12/21 01:01:34;;;;;;;19.33;12.02;;;1.70;99.90;;;;;;4719601;30;20532;-78
2020/12/21 01:04:02;;;;;;;16.95;11.52;;;1.70;99.90;;;;;;4746201;30;20056;-77
2020/12/21 01:06:32;;;;;;;18.77;12.52;;;1.80;99.90;;;;;;4733606;30;20075;-78
2020/12/21 01:09:00;;;;;;;18.33;13.10;;;1.80;99.90;;;;;;4749304;30;20055;-78
2020/12/21 01:11:31;;;;;;;16.00;11.18;;;1.80;99.90;;;;;;4737302;30;20138;-77
2020/12/21 01:14:03;;;;;;;17.92;11.38;;;1.80;99.90;;;;;;4737274;30;20475;-77
2020/12/21 01:16:35;;;;;;;17.80;12.38;;;1.80;99.90;;;;;;4737091;30;20066;-77
2020/12/21 01:19:01;;;;;;;22.70;13.30;;;1.90;99.90;;;;;;4750122;30;20574;-78
2020/12/21 01:21:29;;;;;;;17.35;11.70;;;1.90;99.90;;;;;;4751702;30;20055;-77
2020/12/21 01:23:57;;;;;;;21.23;12.57;;;1.90;99.90;;;;;;4739542;30;20479;-78
2020/12/21 01:26:25;;;;;;;17.23;12.05;;;1.90;99.90;;;;;;4737537;30;20113;-78
2020/12/21 01:28:52;;;;;;;18.65;11.65;;;1.90;99.90;;;;;;4736031;30;20063;-78
2020/12/21 01:31:20;;;;;;;16.75;11.68;;;1.90;99.90;;;;;;4739422;30;20060;-78
2020/12/21 01:33:48;;;;;;;16.48;11.32;;;1.90;99.90;;;;;;4739464;30;20044;-78
2020/12/21 01:36:22;;;;;;;18.30;11.07;;;1.90;99.90;;;;;;4754352;30;20052;-77
2020/12/21 01:38:49;;;;;;;16.15;11.38;;;1.80;99.90;;;;;;4738783;30;20297;-78
2020/12/21 01:41:15;;;;;;;17.23;11.45;;;1.80;99.90;;;;;;4739499;30;20052;-78
2020/12/21 01:43:46;;;;;;;14.52;10.55;;;1.80;99.90;;;;;;4740265;30;20051;-78
2020/12/21 01:46:15;;;;;;;16.17;10.77;;;1.80;99.90;;;;;;4754036;30;20134;-78
2020/12/21 01:48:46;;;;;;;16.67;11.65;;;1.80;99.90;;;;;;4739155;30;20048;-78
2020/12/21 01:51:24;;;;;;;17.13;11.45;;;1.80;99.90;;;;;;4739582;30;20074;-78
2020/12/21 01:53:52;;;;;;;17.60;11.50;;;1.80;99.90;;;;;;4739191;30;20047;-78
2020/12/21 01:56:23;;;;;;;16.40;10.98;;;1.80;99.90;;;;;;4739669;30;20062;-77
2020/12/21 01:58:50;;;;;;;16.08;10.90;;;1.80;99.90;;;;;;4737980;30;20403;-77
2020/12/21 02:01:18;;;;;;;17.10;11.65;;;1.80;99.90;;;;;;4753150;30;20519;-78
2020/12/21 02:03:45;;;;;;;17.08;11.98;;;1.80;99.90;;;;;;4752791;30;20151;-77
2020/12/21 02:06:12;;;;;;;16.65;12.05;;;1.90;99.90;;;;;;4738104;30;20197;-77
2020/12/21 02:08:38;;;;;;;17.52;11.25;;;1.90;99.90;;;;;;4737924;30;20127;-78
2020/12/21 02:11:05;;;;;;;15.80;11.73;;;1.90;99.90;;;;;;4738591;30;20052;-78
2020/12/21 02:13:31;;;;;;;16.85;11.57;;;1.80;99.90;;;;;;4753177;30;20063;-78
2020/12/21 02:16:01;;;;;;;17.42;11.95;;;1.90;99.90;;;;;;4737988;30;20052;-78
2020/12/21 02:18:36;;;;;;;19.90;11.13;;;1.80;99.90;;;;;;4737887;30;20062;-78
2020/12/21 02:21:02;;;;;;;21.13;13.57;;;1.90;99.90;;;;;;4737680;30;20059;-78
2020/12/21 02:23:34;;;;;;;17.25;12.43;;;1.90;99.90;;;;;;4738549;30;20063;-77
2020/12/21 02:26:00;;;;;;;17.05;11.43;;;1.90;99.90;;;;;;4752800;30;20490;-78
2020/12/21 02:28:31;;;;;;;17.00;11.73;;;1.90;99.90;;;;;;4738886;30;20062;-77
2020/12/21 02:30:58;;;;;;;14.95;11.38;;;1.90;99.90;;;;;;4738441;30;20079;-77
2020/12/21 02:33:29;;;;;;;16.17;12.15;;;1.90;99.90;;;;;;4753639;30;20052;-77
2020/12/21 02:35:56;;;;;;;18.70;12.07;;;1.90;99.90;;;;;;4738713;30;20513;-78
2020/12/21 02:38:27;;;;;;;17.38;12.57;;;1.90;99.90;;;;;;4738572;30;20535;-78
2020/12/21 02:40:53;;;;;;;19.70;13.15;;;1.90;99.90;;;;;;4738680;30;20062;-78
2020/12/21 02:43:20;;;;;;;17.65;12.13;;;1.90;99.90;;;;;;4738393;30;20090;-78
2020/12/21 02:45:52;;;;;;;16.17;11.68;;;2.00;99.90;;;;;;4739190;30;20062;-78
2020/12/21 02:48:18;;;;;;;17.60;12.18;;;2.00;99.90;;;;;;4737899;30;20055;-77
2020/12/21 02:50:50;;;;;;;17.73;12.75;;;2.00;99.90;;;;;;4738895;30;20589;-78
2020/12/21 02:53:17;;;;;;;18.63;13.05;;;2.00;99.90;;;;;;4738659;30;20046;-78
2020/12/21 02:55:44;;;;;;;16.30;11.93;;;2.00;99.90;;;;;;4738238;30;20436;-77
2020/12/21 02:58:16;;;;;;;17.10;12.60;;;2.00;99.90;;;;;;4738304;30;20056;-78
2020/12/21 03:00:48;;;;;;;19.98;13.40;;;2.00;99.90;;;;;;4738620;30;20333;-78
2020/12/21 03:03:14;;;;;;;18.42;13.43;;;2.10;99.90;;;;;;4737914;30;20078;-77
2020/12/21 03:05:41;;;;;;;18.30;12.60;;;2.10;99.90;;;;;;4737922;30;20059;-77
2020/12/21 03:08:09;;;;;;;17.80;12.45;;;2.10;99.90;;;;;;4737231;30;20052;-78
2020/12/21 03:10:36;;;;;;;18.15;13.30;;;2.10;99.90;;;;;;4737518;30;20142;-78
2020/12/21 03:13:03;;;;;;;19.25;13.38;;;2.10;99.90;;;;;;4737867;30;20079;-78
2020/12/21 03:15:30;;;;;;;19.85;13.50;;;2.10;99.90;;;;;;4752421;30;20083;-78
2020/12/21 03:17:56;;;;;;;18.25;12.77;;;2.10;99.90;;;;;;4737263;30;20146;-77
2020/12/21 03:20:28;;;;;;;18.55;12.50;;;2.10;99.90;;;;;;4738316;30;20068;-77
2020/12/21 03:22:54;;;;;;;19.42;13.55;;;2.10;99.90;;;;;;4737646;30;20068;-77
2020/12/21 03:25:25;;;;;;;17.42;12.70;;;2.10;99.90;;;;;;4738213;30;20058;-77
2020/12/21 03:27:52;;;;;;;17.63;13.20;;;2.10;99.90;;;;;;4736884;30;20493;-77
2020/12/21 03:30:18;;;;;;;17.10;12.75;;;2.10;99.90;;;;;;4737281;30;20121;-78
2020/12/21 03:32:44;;;;;;;17.88;12.23;;;2.10;99.90;;;;;;4737311;30;20075;-78
2020/12/21 03:35:11;;;;;;;16.17;11.70;;;2.10;99.90;;;;;;4752079;30;20465;-78
2020/12/21 03:37:37;;;;;;;18.00;13.35;;;2.10;99.90;;;;;;4751581;30;20143;-77
2020/12/21 03:40:05;;;;;;;17.70;12.73;;;2.10;99.90;;;;;;4751587;30;20056;-77
2020/12/21 03:42:31;;;;;;;24.25;14.70;;;2.10;99.90;;;;;;4751900;30;20058;-77
2020/12/21 03:45:04;;;;;;;23.90;15.13;;;2.20;99.90;;;;;;4737680;30;20170;-77
2020/12/21 03:47:30;;;;;;;19.35;13.88;;;2.20;99.90;;;;;;4737116;30;20074;-77
2020/12/21 03:49:57;;;;;;;19.65;13.32;;;2.20;99.90;;;;;;4751361;30;20539;-77
2020/12/21 03:52:23;;;;;;;20.98;13.35;;;2.30;99.90;;;;;;4751856;30;20427;-77
2020/12/21 03:54:49;;;;;;;15.52;11.25;;;2.20;99.90;;;;;;4737109;30;20058;-77
2020/12/21 03:57:21;;;;;;;17.08;11.77;;;2.20;99.90;;;;;;4737388;30;20540;-77
2020/12/21 03:59:47;;;;;;;20.35;12.68;;;2.10;99.90;;;;;;4751068;30;20056;-78
2020/12/21 04:02:13;;;;;;;21.77;12.07;;;2.10;99.90;;;;;;4737005;30;20059;-78
2020/12/21 04:04:45;;;;;;;18.52;12.63;;;2.10;99.90;;;;;;4752099;30;20071;-77
2020/12/21 04:07:16;;;;;;;20.20;12.68;;;2.10;99.90;;;;;;4737316;30;20048;-77
2020/12/21 04:09:48;;;;;;;19.35;13.25;;;2.10;99.90;;;;;;4736694;30;20523;-78
2020/12/21 04:12:14;;;;;;;18.38;11.63;;;2.10;99.90;;;;;;4736536;30;20138;-77
2020/12/21 04:14:40;;;;;;;18.15;13.40;;;2.10;99.90;;;;;;4736569;30;20052;-78
2020/12/21 04:17:11;;;;;;;19.15;12.75;;;2.10;99.90;;;;;;4737185;30;20056;-77
2020/12/21 04:19:43;;;;;;;16.48;11.38;;;2.10;99.90;;;;;;4751477;30;20047;-78
2020/12/21 04:22:09;;;;;;;21.10;14.70;;;2.10;99.90;;;;;;4736913;30;20428;-78
2020/12/21 04:24:35;;;;;;;21.98;12.73;;;2.10;99.90;;;;;;4736522;30;20150;-77
2020/12/21 04:27:02;;;;;;;18.65;13.20;;;2.00;99.90;;;;;;4736554;30;20084;-77
2020/12/21 04:29:28;;;;;;;16.90;12.57;;;2.00;99.90;;;;;;4736187;30;20075;-78
2020/12/21 04:31:55;;;;;;;16.38;11.63;;;2.00;99.90;;;;;;4736614;30;20511;-77
2020/12/21 04:34:25;;;;;;;15.90;11.00;;;2.00;99.90;;;;;;4736382;30;20143;-78
2020/12/21 04:36:52;;;;;;;16.42;11.00;;;1.90;99.90;;;;;;4736337;30;20059;-78
2020/12/21 04:39:21;;;;;;;17.90;12.40;;;1.90;99.90;;;;;;4735639;30;20590;-77
2020/12/21 04:41:57;;;;;;;15.85;11.05;;;1.90;99.90;;;;;;4751103;30;20142;-78
2020/12/21 04:44:24;;;;;;;18.42;11.50;;;2.00;99.90;;;;;;4736467;30;20067;-78
2020/12/21 04:46:57;;;;;;;18.20;12.10;;;1.90;99.90;;;;;;4736395;30;20063;-77
2020/12/21 04:49:25;;;;;;;19.50;13.70;;;2.00;99.90;;;;;;4750312;30;20515;-77
2020/12/21 04:51:51;;;;;;;24.70;15.55;;;2.00;99.90;;;;;;4736375;30;20109;-77
2020/12/21 04:54:19;;;;;;;19.35;13.63;;;2.00;99.90;;;;;;4750662;30;20147;-78
2020/12/21 04:56:45;;;;;;;19.50;13.40;;;2.00;99.90;;;;;;4737512;30;20051;-77
2020/12/21 04:59:17;;;;;;;17.35;12.10;;;2.00;99.90;;;;;;4740333;30;20136;-77
2020/12/21 05:01:43;;;;;;;16.23;10.93;;;2.00;99.90;;;;;;4739710;30;20056;-77
2020/12/21 05:04:13;;;;;;;17.70;10.93;;;2.00;99.90;;;;;;4754500;30;20524;-78
2020/12/21 05:06:49;;;;;;;17.58;11.15;;;2.00;99.90;;;;;;4739494;30;20088;-78
2020/12/21 05:09:15;;;;;;;16.85;11.57;;;1.90;99.90;;;;;;4739240;30;20480;-77
2020/12/21 05:12:03;;;;;;;18.15;12.43;;;1.90;99.90;;;;;;4740598;30;20058;-78
2020/12/21 05:14:31;;;;;;;15.77;11.63;;;1.90;99.90;;;;;;4754185;30;20141;-77
2020/12/21 05:17:12;;;;;;;19.50;11.23;;;1.90;99.90;;;;;;4739796;30;20142;-78
2020/12/21 05:19:44;;;;;;;20.40;11.95;;;1.90;99.90;;;;;;4739682;30;20167;-77
2020/12/21 05:22:12;;;;;;;18.35;11.88;;;1.90;99.90;;;;;;4754108;30;20083;-77
2020/12/21 05:24:38;;;;;;;17.05;12.10;;;1.90;99.90;;;;;;4753968;30;20154;-78
2020/12/21 05:27:16;;;;;;;19.33;13.30;;;1.80;99.90;;;;;;4739219;30;20059;-78
2020/12/21 05:29:52;;;;;;;17.73;11.60;;;1.80;99.90;;;;;;4753688;30;20105;-77
2020/12/21 05:32:19;;;;;;;17.77;11.88;;;1.80;99.90;;;;;;4739505;30;20090;-78
2020/12/21 05:34:45;;;;;;;20.85;12.60;;;1.80;99.90;;;;;;4739364;30;20048;-78
2020/12/21 05:37:16;;;;;;;16.83;11.25;;;1.80;99.90;;;;;;4754256;30;20412;-77
2020/12/21 05:39:54;;;;;;;16.65;11.20;;;1.70;99.90;;;;;;4738529;30;20637;-78
2020/12/21 05:42:21;;;;;;;15.07;10.57;;;1.70;99.90;;;;;;4753757;30;20151;-78
2020/12/21 05:44:58;;;;;;;16.70;10.52;;;1.70;99.90;;;;;;4739104;30;20055;-78
2020/12/21 05:47:29;;;;;;;15.68;10.70;;;1.70;99.90;;;;;;4754536;30;20579;-77
2020/12/21 05:50:01;;;;;;;15.82;10.52;;;1.70;99.90;;;;;;4738495;30;20138;-77
2020/12/21 05:52:33;;;;;;;14.50;10.45;;;1.70;99.90;;;;;;4753778;30;20059;-78
2020/12/21 05:55:10;;;;;;;15.00;10.05;;;1.60;99.90;;;;;;4753399;30;20060;-77
2020/12/21 05:57:38;;;;;;;15.57;10.40;;;1.60;99.90;;;;;;4753619;30;20486;-77
2020/12/21 06:00:13;;;;;;;14.90;9.87;;;1.60;99.90;;;;;;4739495;30;20079;-78
2020/12/21 06:02:40;;;;;;;13.70;9.50;;;1.60;99.90;;;;;;4739135;30;20056;-77
2020/12/21 06:05:12;;;;;;;13.15;8.88;;;1.60;99.90;;;;;;4753752;30;20051;-78
2020/12/21 06:07:50;;;;;;;15.90;10.20;;;1.50;99.90;;;;;;4740072;30;20579;-79
2020/12/21 06:10:28;;;;;;;13.38;9.10;;;1.50;99.90;;;;;;4738373;30;20555;-78
2020/12/21 06:12:55;;;;;;;14.32;8.57;;;1.50;99.90;;;;;;4768077;30;20044;-79
2020/12/21 06:15:26;;;;;;;13.02;9.10;;;1.50;99.90;;;;;;4753840;30;20047;-78
2020/12/21 06:17:52;;;;;;;15.90;9.85;;;1.50;99.90;;;;;;4753382;30;20056;-79
2020/12/21 06:20:18;;;;;;;17.38;11.00;;;1.50;99.90;;;;;;4738735;30;20055;-78
2020/12/21 06:22:45;;;;;;;21.42;13.07;;;1.50;99.90;;;;;;4753489;30;20063;-78
2020/12/21 06:25:21;;;;;;;18.70;11.73;;;1.50;99.90;;;;;;4753623;30;20523;-78
2020/12/21 06:27:55;;;;;;;17.88;11.30;;;1.50;99.90;;;;;;4753000;30;20052;-79
2020/12/21 06:30:31;;;;;;;14.52;10.50;;;1.50;99.90;;;;;;4753605;30;20056;-78
2020/12/21 06:33:03;;;;;;;16.35;10.63;;;1.40;99.90;;;;;;4739689;30;20052;-78
2020/12/21 06:35:42;;;;;;;16.35;10.68;;;1.40;99.90;;;;;;4739348;30;20062;-78
2020/12/21 06:38:08;;;;;;;13.60;9.25;;;1.40;99.90;;;;;;4737962;30;20056;-78
2020/12/21 06:40:40;;;;;;;16.20;9.95;;;1.40;99.90;;;;;;4754128;30;20168;-78
2020/12/21 06:43:10;;;;;;;14.82;9.32;;;1.30;99.90;;;;;;4738605;30;20424;-78
2020/12/21 06:45:36;;;;;;;13.95;8.77;;;1.30;99.90;;;;;;4738314;30;20151;-79
2020/12/21 06:48:08;;;;;;;13.75;9.55;;;1.30;99.90;;;;;;4752633;30;20047;-79
2020/12/21 06:50:39;;;;;;;14.25;9.60;;;1.30;99.90;;;;;;4739218;30;20055;-78
2020/12/21 06:53:10;;;;;;;13.00;8.57;;;1.30;99.90;;;;;;4739168;30;20493;-78
2020/12/21 06:55:42;;;;;;;13.93;8.80;;;1.30;99.90;;;;;;4752851;30;20142;-78
2020/12/21 06:58:08;;;;;;;12.15;7.97;;;1.30;99.90;;;;;;4752162;30;20177;-78
2020/12/21 07:00:35;;;;;;;12.48;7.85;;;1.30;99.90;;;;;;4752762;30;20129;-78
2020/12/21 07:03:01;;;;;;;14.45;7.60;;;1.30;99.90;;;;;;4752962;30;20060;-78
2020/12/21 07:05:28;;;;;;;12.73;8.07;;;1.30;99.90;;;;;;4753174;30;20439;-78
2020/12/21 07:08:01;;;;;;;13.15;9.05;;;1.20;99.90;;;;;;4752315;30;20420;-79
2020/12/21 07:10:31;;;;;;;15.93;9.77;;;1.20;99.90;;;;;;4753128;30;20056;-78
2020/12/21 07:12:57;;;;;;;21.40;13.27;;;1.20;99.90;;;;;;4738382;30;20098;-78
2020/12/21 07:15:29;;;;;;;18.58;11.73;;;1.20;99.90;;;;;;4735415;30;20052;-78
2020/12/21 07:18:00;;;;;;;17.75;11.63;;;1.20;99.90;;;;;;4717715;30;20096;-78
2020/12/21 07:20:32;;;;;;;13.52;9.98;;;1.20;99.90;;;;;;4720346;30;20468;-78
2020/12/21 07:22:59;;;;;;;17.35;11.23;;;1.20;99.90;;;;;;4718398;30;20075;-79
2020/12/21 07:25:25;;;;;;;18.63;13.95;;;1.20;99.90;;;;;;4716539;30;20139;-79
2020/12/21 07:27:53;;;;;;;18.98;13.20;;;1.20;99.90;;;;;;4716142;30;20107;-78
2020/12/21 07:30:25;;;;;;;19.38;13.32;;;1.30;99.90;;;;;;4743317;30;20079;-79
2020/12/21 07:32:57;;;;;;;24.73;15.55;;;1.30;99.90;;;;;;4734365;30;20055;-78
2020/12/21 07:35:24;;;;;;;21.67;14.85;;;1.30;99.90;;;;;;4741077;30;20051;-79
2020/12/21 07:37:51;;;;;;;25.27;16.73;;;1.30;99.90;;;;;;4737073;30;20125;-78
2020/12/21 07:40:23;;;;;;;31.05;17.27;;;1.30;99.90;;;;;;4736515;30;20051;-78
2020/12/21 07:43:02;;;;;;;29.05;17.98;;;1.30;99.90;;;;;;4736379;30;20050;-78
2020/12/21 07:45:33;;;;;;;31.38;17.60;;;1.40;99.90;;;;;;4737199;30;20604;-78
2020/12/21 07:48:01;;;;;;;51.50;26.30;;;1.40;99.90;;;;;;4711934;30;20057;-80
2020/12/21 07:50:33;;;;;;;42.55;22.13;;;1.40;99.90;;;;;;4734657;30;20048;-79
2020/12/21 07:53:03;;;;;;;38.40;20.05;;;1.50;99.90;;;;;;4724533;30;20055;-79
2020/12/21 07:55:30;;;;;;;46.85;21.70;;;1.50;99.90;;;;;;4749124;30;20086;-79
2020/12/21 07:57:57;;;;;;;38.10;20.88;;;1.50;99.90;;;;;;4735657;30;20063;-79
2020/12/21 08:00:26;;;;;;;39.10;21.70;;;1.50;99.90;;;;;;4748696;30;20406;-79
2020/12/21 08:02:59;;;;;;;41.25;22.48;;;1.60;99.90;;;;;;4737293;30;20060;-79
2020/12/21 08:05:26;;;;;;;32.08;20.95;;;1.60;99.90;;;;;;4718600;30;20643;-79
2020/12/21 08:07:54;;;;;;;42.00;24.75;;;1.60;99.90;;;;;;4757551;30;20048;-79
2020/12/21 08:10:22;;;;;;;35.17;21.58;;;1.60;99.90;;;;;;4733603;30;20103;-79
2020/12/21 08:12:49;;;;;;;38.70;20.60;;;1.60;99.90;;;;;;4734388;30;20580;-79
2020/12/21 08:15:20;;;;;;;35.13;19.15;;;1.60;99.90;;;;;;4734920;30;20129;-80
2020/12/21 08:17:53;;;;;;;24.27;15.38;;;1.60;99.90;;;;;;4719172;30;20066;-80
2020/12/21 08:20:21;;;;;;;31.00;17.30;;;1.60;99.90;;;;;;4719347;30;20075;-80
2020/12/21 08:22:48;;;;;;;35.70;16.35;;;1.60;99.90;;;;;;4740108;30;20113;-79
2020/12/21 08:25:16;;;;;;;39.53;16.25;;;1.70;99.90;;;;;;4728308;30;20048;-80
2020/12/21 08:27:49;;;;;;;28.15;15.02;;;1.70;99.90;;;;;;4730329;30;20071;-79
2020/12/21 08:30:24;;;;;;;48.80;21.77;;;1.80;99.90;;;;;;4716315;30;20055;-79
2020/12/21 08:32:55;;;;;;;44.58;20.33;;;1.80;99.90;;;;;;4730295;30;20715;-79
2020/12/21 08:35:29;;;;;;;47.20;20.30;;;1.80;99.90;;;;;;4716340;30;20075;-79
2020/12/21 08:38:11;;;;;;;53.55;26.15;;;1.80;99.90;;;;;;4715879;30;20053;-81
2020/12/21 08:40:38;;;;;;;55.80;21.08;;;1.80;99.90;;;;;;4737837;30;20052;-79
2020/12/21 08:43:10;;;;;;;45.63;16.17;;;1.80;99.90;;;;;;4740427;30;20146;-80
2020/12/21 08:45:38;;;;;;;47.92;16.92;;;1.80;99.90;;;;;;4739363;30;20055;-80
2020/12/21 08:48:04;;;;;;;87.97;18.42;;;1.80;99.90;;;;;;4738869;30;20048;-80
2020/12/21 08:50:36;;;;;;;61.83;18.00;;;1.80;99.90;;;;;;4739504;30;20500;-78
2020/12/21 08:53:05;;;;;;;46.97;14.20;;;1.80;99.90;;;;;;4738972;30;20139;-79
2020/12/21 08:55:32;;;;;;;73.35;16.02;;;1.70;99.90;;;;;;4753443;30;20059;-79
2020/12/21 08:58:03;;;;;;;44.95;15.95;;;1.70;99.90;;;;;;4739314;30;20513;-80
2020/12/21 09:00:30;;;;;;;56.80;18.42;;;1.80;99.90;;;;;;4738675;30;20440;-79
2020/12/21 09:03:02;;;;;;;45.65;16.13;;;1.80;99.90;;;;;;4739430;30;20058;-79
2020/12/21 09:05:36;;;;;;;44.92;17.33;;;1.80;99.90;;;;;;4739386;30;20056;-79
2020/12/21 09:08:08;;;;;;;30.90;15.05;;;1.90;99.90;;;;;;4738991;30;20533;-79
2020/12/21 09:10:46;;;;;;;80.43;21.08;;;2.00;99.90;;;;;;4753695;30;20385;-79
2020/12/21 09:13:12;;;;;;;39.55;17.02;;;2.10;99.90;;;;;;4755426;30;20086;-79
2020/12/21 09:15:39;;;;;;;31.75;17.48;;;2.10;99.90;;;;;;4729868;30;20087;-79
2020/12/21 09:18:05;;;;;;;54.85;21.45;;;2.10;99.90;;;;;;4736163;30;20513;-79
2020/12/21 09:20:32;;;;;;;64.13;25.02;;;2.20;99.90;;;;;;4721103;30;20058;-79
2020/12/21 09:22:58;;;;;;;47.92;22.52;;;2.20;99.90;;;;;;4721651;30;20063;-80
2020/12/21 09:25:25;;;;;;;51.78;21.85;;;2.20;99.90;;;;;;4721199;30;20156;-80
2020/12/21 09:27:57;;;;;;;46.55;22.98;;;2.30;99.90;;;;;;4736724;30;20047;-79
2020/12/21 09:30:31;;;;;;;43.55;24.70;;;2.30;99.90;;;;;;4721646;30;20044;-79
2020/12/21 09:33:03;;;;;;;37.00;18.85;;;2.40;99.90;;;;;;4718334;30;20123;-79
2020/12/21 09:35:30;;;;;;;39.95;17.70;;;2.40;99.90;;;;;;4717919;30;20056;-79
2020/12/21 09:37:58;;;;;;;47.17;16.70;;;2.50;99.90;;;;;;4717588;30;20080;-79
2020/12/21 09:40:25;;;;;;;33.05;18.02;;;2.50;99.90;;;;;;4717923;30;20060;-80
2020/12/21 09:42:53;;;;;;;36.22;18.48;;;2.50;99.90;;;;;;4719037;30;20056;-79
2020/12/21 09:45:25;;;;;;;36.50;17.23;;;2.60;99.90;;;;;;4727627;30;20056;-80
2020/12/21 09:47:56;;;;;;;39.85;17.02;;;2.60;99.90;;;;;;4724332;30;20420;-80
2020/12/21 09:50:29;;;;;;;60.33;17.80;;;2.70;99.90;;;;;;4724784;30;20048;-79
2020/12/21 09:52:56;;;;;;;53.53;18.15;;;2.80;99.90;;;;;;4738548;30;20044;-80
2020/12/21 09:55:23;;;;;;;39.20;16.13;;;2.80;99.90;;;;;;4738262;30;20111;-79
2020/12/21 09:57:50;;;;;;;36.17;14.07;;;2.80;99.90;;;;;;4737879;30;20090;-79
2020/12/21 10:00:23;;;;;;;52.83;15.45;;;2.70;99.90;;;;;;4738662;30;20056;-80
2020/12/21 10:02:50;;;;;;;46.20;14.52;;;2.80;99.90;;;;;;4738553;30;20044;-79
2020/12/21 10:05:18;;;;;;;35.63;13.73;;;2.80;99.90;;;;;;4724416;30;20537;-80
2020/12/21 10:07:45;;;;;;;32.45;14.70;;;2.80;99.90;;;;;;4741495;30;20052;-79
2020/12/21 10:10:18;;;;;;;47.47;17.45;;;2.80;99.90;;;;;;4743374;30;20045;-79
2020/12/21 10:12:51;;;;;;;30.92;16.00;;;2.80;99.90;;;;;;4742936;30;20060;-79
2020/12/21 10:15:23;;;;;;;43.35;15.82;;;2.80;99.90;;;;;;4729010;30;20079;-80
2020/12/21 10:17:53;;;;;;;38.55;16.27;;;2.80;99.90;;;;;;4728332;30;20143;-78
2020/12/21 10:20:20;;;;;;;38.35;15.02;;;2.80;99.90;;;;;;4741665;30;20083;-79
2020/12/21 10:22:48;;;;;;;46.75;15.30;;;2.80;99.90;;;;;;4741205;30;20060;-80
2020/12/21 10:25:16;;;;;;;63.47;17.27;;;2.80;99.90;;;;;;4742466;30;20056;-79
2020/12/21 10:27:43;;;;;;;36.67;16.05;;;2.80;99.90;;;;;;4741171;30;20107;-79
2020/12/21 10:30:11;;;;;;;29.23;15.02;;;2.80;99.90;;;;;;4742714;30;20052;-80
2020/12/21 10:32:45;;;;;;;45.25;15.55;;;2.90;99.90;;;;;;4741867;30;20056;-79
2020/12/21 10:35:15;;;;;;;47.65;17.38;;;2.80;99.90;;;;;;4742382;30;20107;-80
2020/12/21 10:37:43;;;;;;;28.67;15.40;;;2.80;99.90;;;;;;4741854;30;20525;-80
2020/12/21 10:40:13;;;;;;;38.75;14.32;;;2.80;99.90;;;;;;4742577;30;20119;-80
2020/12/21 10:42:43;;;;;;;41.90;12.43;;;2.80;99.90;;;;;;4748063;30;20083;-80
2020/12/21 10:45:11;;;;;;;34.67;11.52;;;2.80;99.90;;;;;;4741986;30;20051;-80
2020/12/21 10:47:46;;;;;;;39.03;12.57;;;2.70;99.90;;;;;;4726715;30;20051;-81
2020/12/21 10:50:17;;;;;;;31.17;13.38;;;2.70;99.90;;;;;;4739759;30;20049;-79
2020/12/21 10:52:45;;;;;;;25.42;12.75;;;2.70;99.90;;;;;;4722836;30;20040;-80
2020/12/21 10:55:13;;;;;;;43.30;12.55;;;2.70;99.90;;;;;;4719648;30;20056;-79
2020/12/21 10:57:42;;;;;;;23.63;12.55;;;2.80;99.90;;;;;;4719115;30;20056;-78
2020/12/21 11:00:11;;;;;;;40.67;14.32;;;2.80;99.90;;;;;;4735624;30;20254;-79
2020/12/21 11:02:39;;;;;;;25.52;12.73;;;2.80;99.90;;;;;;4738362;30;20520;-79
2020/12/21 11:05:11;;;;;;;20.63;12.45;;;2.90;99.90;;;;;;4737377;30;20052;-79
2020/12/21 11:07:40;;;;;;;25.88;12.48;;;2.90;99.90;;;;;;4734665;30;20052;-79
2020/12/21 11:10:08;;;;;;;23.60;12.90;;;2.90;99.90;;;;;;4734542;30;20044;-79
2020/12/21 11:12:36;;;;;;;30.73;12.82;;;3.00;99.90;;;;;;4734987;30;20072;-79
2020/12/21 11:15:09;;;;;;;34.80;11.85;;;3.00;99.90;;;;;;4735658;30;20076;-79
2020/12/21 11:17:37;;;;;;;37.17;14.40;;;3.00;99.90;;;;;;4729308;30;20097;-78
2020/12/21 11:20:06;;;;;;;20.55;12.25;;;3.00;99.90;;;;;;4742361;30;20604;-79
2020/12/21 11:22:35;;;;;;;37.15;13.05;;;3.00;99.90;;;;;;4742036;30;20054;-79
2020/12/21 11:25:02;;;;;;;27.55;11.60;;;3.00;99.90;;;;;;4729735;30;20056;-79
2020/12/21 11:27:30;;;;;;;31.02;11.90;;;3.00;99.90;;;;;;4754514;30;20063;-79
2020/12/21 11:29:58;;;;;;;18.58;12.25;;;3.10;99.90;;;;;;4733024;30;20520;-79
2020/12/21 11:32:27;;;;;;;17.73;12.70;;;3.10;99.90;;;;;;4750628;30;20119;-79
2020/12/21 11:34:55;;;;;;;17.98;11.57;;;3.20;99.90;;;;;;4753830;30;20488;-79
2020/12/21 11:37:24;;;;;;;27.10;12.65;;;3.20;99.90;;;;;;4755074;30;20146;-80
2020/12/21 11:39:53;;;;;;;23.73;12.95;;;3.30;99.90;;;;;;4754190;30;20427;-79
2020/12/21 11:42:21;;;;;;;23.30;13.30;;;3.30;99.90;;;;;;4740501;30;20300;-79
2020/12/21 11:44:50;;;;;;;20.88;13.63;;;3.30;99.90;;;;;;4752803;30;20056;-79
2020/12/21 11:47:18;;;;;;;23.35;14.73;;;3.40;99.90;;;;;;4723876;30;20056;-79
2020/12/21 11:49:46;;;;;;;26.23;15.18;;;3.50;99.90;;;;;;4738311;30;20048;-79
2020/12/21 11:52:15;;;;;;;21.95;14.95;;;3.50;99.90;;;;;;4754691;30;20047;-79
2020/12/21 11:54:43;;;;;;;31.52;18.45;;;3.50;99.90;;;;;;4755337;30;20059;-79
2020/12/21 11:57:17;;;;;;;30.33;17.73;;;3.60;99.90;;;;;;4735678;30;20532;-80
2020/12/21 11:59:45;;;;;;;33.53;17.13;;;3.60;99.90;;;;;;4733960;30;20068;-79
2020/12/21 12:02:12;;;;;;;26.85;15.60;;;3.70;99.90;;;;;;4735549;30;20059;-80
2020/12/21 12:04:40;;;;;;;23.15;14.65;;;3.70;99.90;;;;;;4734753;30;20048;-80
2020/12/21 12:07:08;;;;;;;28.00;15.88;;;3.70;99.90;;;;;;4735075;30;20087;-80
2020/12/21 12:09:36;;;;;;;29.50;15.70;;;3.80;99.90;;;;;;4734466;30;20053;-80
2020/12/21 12:12:05;;;;;;;25.10;14.73;;;3.80;99.90;;;;;;4735736;30;20072;-80
2020/12/21 12:14:33;;;;;;;25.67;15.52;;;3.90;99.90;;;;;;4735338;30;20052;-80
2020/12/21 12:17:02;;;;;;;26.05;14.82;;;3.90;99.90;;;;;;4735639;30;20056;-79
2020/12/21 12:19:33;;;;;;;28.90;16.90;;;3.90;99.90;;;;;;4719757;30;20053;-79
2020/12/21 12:22:06;;;;;;;26.92;16.67;;;3.90;99.90;;;;;;4748552;30;20044;-79
2020/12/21 12:24:39;;;;;;;28.38;16.75;;;4.00;99.90;;;;;;4738452;30;20071;-79
2020/12/21 12:27:07;;;;;;;28.38;16.77;;;4.00;99.90;;;;;;4734748;30;20046;-79
2020/12/21 12:29:35;;;;;;;26.05;16.83;;;4.00;99.90;;;;;;4738114;30;20143;-80
2020/12/21 12:32:03;;;;;;;29.88;18.33;;;4.10;99.90;;;;;;4733991;30;20049;-80
2020/12/21 12:34:32;;;;;;;28.63;17.58;;;4.10;99.90;;;;;;4736578;30;20056;-79
2020/12/21 12:37:00;;;;;;;27.08;16.88;;;4.10;99.90;;;;;;4751401;30;20051;-79
2020/12/21 12:39:27;;;;;;;27.65;17.77;;;4.20;99.90;;;;;;4735903;30;20055;-79
2020/12/21 12:41:54;;;;;;;29.23;17.95;;;4.20;99.90;;;;;;4730552;30;20529;-80
2020/12/21 12:44:21;;;;;;;29.88;18.80;;;4.20;99.90;;;;;;4729884;30;20064;-80
2020/12/21 12:46:48;;;;;;;69.10;38.58;;;4.20;99.90;;;;;;4715497;30;20435;-79
2020/12/21 12:49:20;;;;;;;56.30;34.83;;;4.20;99.90;;;;;;4702998;30;20076;-79